createdAt,value
2022-10-14T00:01:23.434Z,15.27
2022-10-14T00:06:29.877Z,12.63
2022-10-14T00:11:50.783Z,12.63
2022-10-14T00:17:11.421Z,9.10
2022-10-14T00:22:14.118Z,9.10
2022-10-14T00:27:16.191Z,9.40
2022-10-14T00:32:18.915Z,10.33
2022-10-14T00:37:21.360Z,10.63
2022-10-14T00:42:23.613Z,10.83
2022-10-14T00:47:25.792Z,7.97
2022-10-14T00:52:28.499Z,10.37
2022-10-14T00:57:31.023Z,7.93
2022-10-14T01:02:33.264Z,9.87
2022-10-14T01:08:30.955Z,7.73
2022-10-14T01:13:37.685Z,7.23
2022-10-14T01:18:58.472Z,8.53
2022-10-14T01:24:09.616Z,6.73
2022-10-14T01:29:36.419Z,6.13
2022-10-14T01:34:48.891Z,9.73
2022-10-14T01:40:01.108Z,7.17
2022-10-14T01:45:24.254Z,7.07
2022-10-14T01:50:28.227Z,9.20
2022-10-14T01:55:36.232Z,7.93
2022-10-14T02:00:38.622Z,8.40
2022-10-14T02:05:53.575Z,8.00
2022-10-14T02:11:06.164Z,8.87
2022-10-14T02:16:41.168Z,6.93
2022-10-14T02:21:47.220Z,9.60
2022-10-14T02:27:15.622Z,11.50
2022-10-14T02:32:20.310Z,7.93
2022-10-14T02:37:26.430Z,10.37
2022-10-14T02:42:29.217Z,8.37
2022-10-14T02:47:50.106Z,6.50
2022-10-14T02:52:52.306Z,9.67
2022-10-14T02:58:14.733Z,9.43
2022-10-14T03:03:16.992Z,7.70
2022-10-14T03:08:19.209Z,7.07
2022-10-14T03:13:22.262Z,8.43
2022-10-14T03:18:25.420Z,7.63
2022-10-14T03:23:33.076Z,5.90
2022-10-14T03:28:35.316Z,10.63
2022-10-14T03:34:25.153Z,11.13
2022-10-14T03:39:37.626Z,7.17
2022-10-14T03:45:00.268Z,11.77
2022-10-14T03:50:06.504Z,8.83
2022-10-14T03:55:18.079Z,5.97
2022-10-14T04:00:23.061Z,11.30
2022-10-14T04:05:54.774Z,6.47
2022-10-14T04:11:00.370Z,8.97
2022-10-14T04:16:08.425Z,10.73
2022-10-14T04:21:33.435Z,6.30
2022-10-14T04:26:35.860Z,7.23
2022-10-14T04:31:39.385Z,9.53
2022-10-14T04:36:41.693Z,9.40
2022-10-14T04:41:57.816Z,8.77
2022-10-14T04:46:59.981Z,9.33
2022-10-14T04:52:03.311Z,11.80
2022-10-14T04:57:16.225Z,8.53
2022-10-14T05:02:22.869Z,8.83
2022-10-14T05:07:31.424Z,12.90
2022-10-14T05:12:44.021Z,8.07
2022-10-14T05:17:46.304Z,10.03
2022-10-14T05:22:51.783Z,9.47
2022-10-14T05:27:54.169Z,9.70
2022-10-14T05:32:57.276Z,13.00
2022-10-14T05:38:04.018Z,11.37
2022-10-14T05:43:12.340Z,9.30
2022-10-14T05:48:19.624Z,11.80
2022-10-14T05:53:24.344Z,12.03
2022-10-14T05:58:29.717Z,12.17
2022-10-14T06:03:51.526Z,11.00
2022-10-14T06:08:56.118Z,10.93
2022-10-14T06:13:58.464Z,8.07
2022-10-14T06:19:00.630Z,11.00
2022-10-14T06:24:03.937Z,8.67
2022-10-14T06:29:07.303Z,11.50
2022-10-14T06:34:09.728Z,9.07
2022-10-14T06:39:12.192Z,8.03
2022-10-14T06:44:15.784Z,5.57
2022-10-14T06:49:17.980Z,9.67
2022-10-14T06:54:20.258Z,7.33
2022-10-14T06:59:22.711Z,7.97
2022-10-14T07:04:28.072Z,8.03
2022-10-14T07:09:30.317Z,6.37
2022-10-14T07:14:32.510Z,7.80
2022-10-14T07:19:35.047Z,8.50
2022-10-14T07:24:37.272Z,8.43
2022-10-14T07:29:39.677Z,11.33
2022-10-14T07:34:41.978Z,10.20
2022-10-14T07:39:44.312Z,9.93
2022-10-14T07:44:46.640Z,11.87
2022-10-14T07:49:48.927Z,10.87
2022-10-14T07:54:51.093Z,12.67
2022-10-14T07:59:53.335Z,12.00
2022-10-14T08:05:04.105Z,10.60
2022-10-14T08:15:17.745Z,11.33
2022-10-14T08:20:38.682Z,12.30
2022-10-14T08:25:59.593Z,9.30
2022-10-14T08:31:01.845Z,9.43
2022-10-14T08:36:04.343Z,8.00
2022-10-14T08:41:12.787Z,9.03
2022-10-14T08:46:21.653Z,8.67
2022-10-14T08:51:23.954Z,8.73
2022-10-14T08:56:26.363Z,9.10
2022-10-14T09:01:54.301Z,11.37
2022-10-14T09:06:57.003Z,14.95
2022-10-14T09:12:01.409Z,12.40
2022-10-14T09:17:08.123Z,11.00
2022-10-14T09:22:14.427Z,10.53
2022-10-14T09:27:22.358Z,10.57
2022-10-14T09:32:35.071Z,11.57
2022-10-14T09:37:57.045Z,9.27
2022-10-14T09:43:11.394Z,9.90
2022-10-14T09:48:39.909Z,9.07
2022-10-14T09:53:49.277Z,9.10
2022-10-14T09:59:20.054Z,8.83
2022-10-14T10:04:31.510Z,10.63
2022-10-14T10:09:34.603Z,8.07
2022-10-14T10:14:36.853Z,8.13
2022-10-14T10:19:43.300Z,12.77
2022-10-14T10:24:46.660Z,11.50
2022-10-14T10:29:48.942Z,9.37
2022-10-14T10:35:27.664Z,10.20
2022-10-14T10:40:47.969Z,8.90
2022-10-14T10:46:24.340Z,8.47
2022-10-14T10:51:29.842Z,9.80
2022-10-14T10:56:58.914Z,6.50
2022-10-14T11:02:04.485Z,7.37
2022-10-14T11:07:56.339Z,6.53
2022-10-14T11:13:29.387Z,5.70
2022-10-14T11:18:50.133Z,6.70
2022-10-14T11:24:23.533Z,5.97
2022-10-14T11:29:37.882Z,6.37
2022-10-14T11:34:58.295Z,4.30
2022-10-14T11:40:29.098Z,6.23
2022-10-14T11:45:54.398Z,6.27
2022-10-14T11:51:20.488Z,6.40
2022-10-14T11:56:46.364Z,6.33
2022-10-14T12:01:53.390Z,19.50
2022-10-14T12:07:10.621Z,7.00
2022-10-14T12:12:15.644Z,6.07
2022-10-14T12:17:23.638Z,3.97
2022-10-14T12:22:28.393Z,5.37
2022-10-14T12:27:31.223Z,10.10
2022-10-14T12:33:08.665Z,7.33
2022-10-14T12:38:13.402Z,5.90
2022-10-14T12:43:34.513Z,7.87
2022-10-14T12:48:38.911Z,6.60
2022-10-14T12:53:50.919Z,5.23
2022-10-14T12:59:01.514Z,5.87
2022-10-14T13:04:19.044Z,4.93
2022-10-14T13:09:32.559Z,7.38
2022-10-14T13:15:00.893Z,6.37
2022-10-14T13:20:04.760Z,5.40
2022-10-14T13:25:16.093Z,5.63
2022-10-14T13:30:33.890Z,8.43
2022-10-14T13:35:57.865Z,6.77
2022-10-14T13:41:00.087Z,5.77
2022-10-14T13:46:33.136Z,9.63
2022-10-14T13:51:56.402Z,8.18
2022-10-14T14:02:33.360Z,10.67
2022-10-14T14:08:13.521Z,7.10
2022-10-14T14:13:02.279Z,8.10
2022-10-14T14:18:04.578Z,7.57
2022-10-14T14:23:07.121Z,8.10
2022-10-14T14:28:31.975Z,13.50
2022-10-14T14:33:35.596Z,21.73
2022-10-14T14:38:39.250Z,18.67
2022-10-14T14:43:47.325Z,14.93
2022-10-14T14:48:56.699Z,13.87
2022-10-14T14:53:59.077Z,13.90
2022-10-14T14:59:16.689Z,13.93
2022-10-14T15:04:21.776Z,14.87
2022-10-14T15:09:38.092Z,18.77
2022-10-14T15:14:51.879Z,20.90
2022-10-14T15:19:54.911Z,19.00
2022-10-14T15:25:16.757Z,19.90
2022-10-14T15:30:37.515Z,20.03
2022-10-14T15:35:41.215Z,15.87
2022-10-14T15:40:44.967Z,28.20
2022-10-14T15:46:19.134Z,16.37
2022-10-14T15:51:26.170Z,15.13
2022-10-14T15:56:29.623Z,19.63
2022-10-14T16:01:34.785Z,20.97
2022-10-14T16:06:37.051Z,17.27
2022-10-14T16:11:39.389Z,22.17
2022-10-14T16:16:45.006Z,23.33
2022-10-14T16:21:49.982Z,21.60
2022-10-14T16:26:52.608Z,33.47
2022-10-14T16:31:55.585Z,41.57
2022-10-14T16:36:57.774Z,41.13
2022-10-14T16:42:00.096Z,80.60
2022-10-14T16:47:19.996Z,69.60
2022-10-14T16:52:22.778Z,38.57
2022-10-14T16:57:53.714Z,43.33
2022-10-14T17:02:55.957Z,49.67
2022-10-14T17:07:58.183Z,51.27
2022-10-14T17:13:02.220Z,42.43
2022-10-14T17:18:25.865Z,36.43
2022-10-14T17:23:31.872Z,28.10
2022-10-14T17:28:34.443Z,24.20
2022-10-14T17:33:55.381Z,18.43
2022-10-14T17:39:03.369Z,18.13
2022-10-14T17:44:05.687Z,16.20
2022-10-14T17:49:11.129Z,16.50
2022-10-14T17:54:13.742Z,13.13
2022-10-14T17:59:35.100Z,19.23
2022-10-14T18:04:38.655Z,19.40
2022-10-14T18:09:40.855Z,21.83
2022-10-14T18:14:43.293Z,25.30
2022-10-14T18:19:52.203Z,18.23
2022-10-14T18:24:54.908Z,17.83
2022-10-14T18:29:58.087Z,14.73
2022-10-14T18:35:02.409Z,13.53
2022-10-14T18:40:06.882Z,14.20
2022-10-14T18:45:11.348Z,15.00
2022-10-14T18:50:13.769Z,20.37
2022-10-14T18:55:16.479Z,12.93
2022-10-14T19:00:19.455Z,17.63
2022-10-14T19:05:21.992Z,14.97
2022-10-14T19:10:24.738Z,12.23
2022-10-14T19:15:51.368Z,18.50
2022-10-14T19:26:01.320Z,13.70
2022-10-14T19:31:25.215Z,14.27
2022-10-14T19:36:27.597Z,15.40
2022-10-14T19:41:32.817Z,13.10
2022-10-14T19:46:36.523Z,10.60
2022-10-14T19:51:39.187Z,13.17
2022-10-14T19:56:41.623Z,11.93
2022-10-14T20:01:45.225Z,13.23
2022-10-14T20:06:47.673Z,11.57
2022-10-14T20:11:49.915Z,12.33
2022-10-14T20:16:55.093Z,11.13
2022-10-14T20:22:00.830Z,12.23
2022-10-14T20:27:04.588Z,10.87
2022-10-14T20:32:10.436Z,10.60
2022-10-14T20:37:33.817Z,10.13
2022-10-14T20:42:54.742Z,8.23
2022-10-14T20:47:57.974Z,12.67
2022-10-14T20:53:01.330Z,8.90
2022-10-14T20:58:03.840Z,9.70
2022-10-14T21:03:06.435Z,7.93
2022-10-14T21:08:08.725Z,11.27
2022-10-14T21:13:11.174Z,9.00
2022-10-14T21:18:32.554Z,9.23
2022-10-14T21:23:53.632Z,10.60
2022-10-14T21:28:56.381Z,8.53
2022-10-14T21:34:05.409Z,8.73
2022-10-14T21:39:10.542Z,10.63
2022-10-14T21:44:17.968Z,10.63
2022-10-14T21:49:20.282Z,15.97
2022-10-14T21:54:24.500Z,9.93
2022-10-14T21:59:45.259Z,11.20
2022-10-14T22:04:47.595Z,10.17
2022-10-14T22:09:49.874Z,10.17
2022-10-14T22:14:52.194Z,7.83
2022-10-14T22:19:54.421Z,10.40
2022-10-14T22:24:56.622Z,11.00
2022-10-14T22:30:17.839Z,9.47
2022-10-14T22:35:38.844Z,10.53
2022-10-14T22:41:04.627Z,8.80
2022-10-14T22:46:09.130Z,12.13
2022-10-14T22:51:13.934Z,8.27
2022-10-14T22:56:18.468Z,8.80
2022-10-14T23:01:22.506Z,8.93
2022-10-14T23:06:25.600Z,7.70
2022-10-14T23:11:28.704Z,9.77
2022-10-14T23:16:31.084Z,10.53
2022-10-14T23:21:37.699Z,10.27
2022-10-14T23:26:39.959Z,9.37
2022-10-14T23:31:42.482Z,8.50
2022-10-14T23:36:44.884Z,10.07
2022-10-14T23:41:47.183Z,7.73
2022-10-14T23:46:50.576Z,9.23
2022-10-14T23:51:52.945Z,11.23
2022-10-14T23:56:55.313Z,9.40
